Time;durP1;ratioP1;P1;durP2;ratioP2;P2;SDS_P1;SDS_P2;PMS_P1;PMS_P2;Temp;Humidity;BMP_temperature;BMP_pressure;BME280_temperature;BME280_humidity;BME280_pressure;Samples;Min_cycle;Max_cycle;Signal;HPM_P1;HPM_P2
2023/09/19 00:00:48;;;;;;;;;;;16.90;75.60;;;;;;4122439;28;20486;-87
2023/09/19 00:03:09;;;;;;;;;;;16.90;75.60;;;;;;4123190;28;20383;-85
2023/09/19 00:05:23;;;;;;;;;;;16.90;75.50;;;;;;4125265;28;19924;-87
2023/09/19 00:07:24;;;;;;;;;;;16.90;75.80;;;;;;4127302;28;20688;-87
2023/09/19 00:09:28;;;;;;;;;;;16.90;76.00;;;;;;4140581;28;19941;-88
2023/09/19 00:11:29;;;;;;;;;;;16.90;76.00;;;;;;4124852;28;19921;-85
2023/09/19 00:13:30;;;;;;;;;;;16.90;76.10;;;;;;4130054;28;20062;-86
2023/09/19 00:15:55;;;;;;;;;;;16.90;76.10;;;;;;4123027;28;20541;-87
2023/09/19 00:18:18;;;;;;;;;;;16.80;76.20;;;;;;4138697;28;20402;-88
2023/09/19 00:20:39;;;;;;;;;;;16.80;76.20;;;;;;4121934;28;19976;-86
2023/09/19 00:23:05;;;;;;;;;;;16.80;76.30;;;;;;4123391;28;20376;-87
2023/09/19 00:25:27;;;;;;;;;;;16.90;76.50;;;;;;4122606;28;20437;-86
2023/09/19 00:27:54;;;;;;;;;;;16.80;76.60;;;;;;4133822;28;19932;-87
2023/09/19 00:30:21;;;;;;;;;;;16.90;76.60;;;;;;4136662;28;20375;-89
2023/09/19 00:32:42;;;;;;;;;;;16.80;76.80;;;;;;4123700;28;19922;-87
2023/09/19 00:35:03;;;;;;;;;;;16.80;76.80;;;;;;4122157;28;20286;-86
2023/09/19 00:37:24;;;;;;;;;;;16.80;76.90;;;;;;4123663;28;19926;-89
2023/09/19 00:39:44;;;;;;;;;;;16.70;76.80;;;;;;4123146;28;20390;-87
2023/09/19 00:41:54;;;;;;;;;;;16.80;76.90;;;;;;4095609;28;19919;-87
2023/09/19 00:44:15;;;;;;;;;;;16.80;76.90;;;;;;4119757;28;20363;-85
2023/09/19 00:46:36;;;;;;;;;;;16.80;76.80;;;;;;4121945;28;20022;-87
2023/09/19 00:48:41;;;;;;;;;;;16.80;76.90;;;;;;4115024;28;19918;-87
2023/09/19 00:51:02;;;;;;;;;;;16.70;76.70;;;;;;4123918;28;19921;-87
2023/09/19 00:53:23;;;;;;;;;;;16.70;76.80;;;;;;4142049;28;19963;-84
2023/09/19 00:55:45;;;;;;;;;;;16.70;76.80;;;;;;4149236;28;19913;-85
2023/09/19 00:58:06;;;;;;;;;;;16.70;76.80;;;;;;4159851;28;19905;-85
2023/09/19 01:00:33;;;;;;;;;;;16.70;76.80;;;;;;4160643;28;19905;-87
2023/09/19 01:02:54;;;;;;;;;;;16.60;76.70;;;;;;4159395;28;19913;-87
2023/09/19 01:05:15;;;;;;;;;;;16.60;76.80;;;;;;4161803;22;20302;-88
2023/09/19 01:12:49;;;;;;;;;;;16.60;77.80;;;;;;4147668;23;19983;-90
2023/09/19 01:15:10;;;;;;;;;;;16.60;77.00;;;;;;4135923;28;19921;-89
2023/09/19 01:17:22;;;;;;;;;;;16.60;77.00;;;;;;4134051;28;19975;-88
2023/09/19 01:22:54;;;;;;;;;;;16.60;77.40;;;;;;4100128;28;20116;-89
2023/09/19 01:25:54;;;;;;;;;;;16.50;77.00;;;;;;4099584;28;19918;-90
2023/09/19 01:28:49;;;;;;;;;;;;;;;;;;;;;
2023/09/19 01:31:24;;;;;;;;;;;16.50;77.10;;;;;;4142077;28;19944;-88
2023/09/19 01:34:03;;;;;;;;;;;16.40;76.90;;;;;;4152484;28;20523;-88
2023/09/19 01:39:24;;;;;;;;;;;16.40;77.20;;;;;;4146724;22;19933;-86
2023/09/19 01:41:54;;;;;;;;;;;16.40;77.30;;;;;;4113713;28;20059;-87
2023/09/19 01:44:40;;;;;;;;;;;16.30;77.20;;;;;;4119032;28;19918;-87
2023/09/19 01:47:04;;;;;;;;;;;16.30;77.00;;;;;;4130879;28;19921;-87
2023/09/19 01:49:34;;;;;;;;;;;16.30;77.10;;;;;;4119035;28;20023;-86
2023/09/19 01:52:16;;;;;;;;;;;16.30;77.00;;;;;;4129815;28;19918;-87
2023/09/19 01:54:22;;;;;;;;;;;16.30;76.90;;;;;;4099160;28;19926;-89
2023/09/19 01:56:25;;;;;;;;;;;16.20;76.90;;;;;;4119636;28;20486;-86
2023/09/19 01:58:48;;;;;;;;;;;16.20;76.90;;;;;;4117930;28;19921;-88
2023/09/19 02:01:10;;;;;;;;;;;16.20;76.80;;;;;;4119421;28;19914;-87
2023/09/19 02:03:31;;;;;;;;;;;16.10;76.70;;;;;;4120550;28;19993;-88
2023/09/19 02:05:53;;;;;;;;;;;16.10;76.80;;;;;;4129566;28;19961;-87
2023/09/19 02:08:16;;;;;;;;;;;16.00;76.70;;;;;;4114476;28;19922;-88
2023/09/19 02:10:37;;;;;;;;;;;16.00;76.70;;;;;;4116707;28;21031;-87
2023/09/19 02:12:59;;;;;;;;;;;16.00;76.60;;;;;;4118211;28;19929;-87
2023/09/19 02:15:22;;;;;;;;;;;15.90;76.70;;;;;;4128412;28;19981;-88
2023/09/19 02:17:44;;;;;;;;;;;15.90;76.60;;;;;;4117412;28;20008;-89
2023/09/19 02:20:09;;;;;;;;;;;15.90;76.60;;;;;;4120946;28;19930;-89
2023/09/19 02:22:38;;;;;;;;;;;15.80;76.40;;;;;;4114954;28;20342;-89
2023/09/19 02:24:39;;;;;;;;;;;15.90;76.70;;;;;;4115969;28;19925;-88
2023/09/19 02:26:41;;;;;;;;;;;15.80;76.40;;;;;;4117609;28;19960;-86
2023/09/19 02:29:04;;;;;;;;;;;15.80;76.40;;;;;;4115156;28;19922;-85
2023/09/19 02:31:25;;;;;;;;;;;15.70;76.20;;;;;;4117949;28;20251;-86
2023/09/19 02:33:46;;;;;;;;;;;15.70;76.30;;;;;;4118214;28;19918;-84
2023/09/19 02:36:10;;;;;;;;;;;15.70;76.30;;;;;;4114423;28;19925;-84
2023/09/19 02:38:34;;;;;;;;;;;15.60;76.30;;;;;;4132043;28;20201;-85
2023/09/19 02:40:55;;;;;;;;;;;15.50;76.30;;;;;;4125492;28;20446;-84
2023/09/19 02:43:16;;;;;;;;;;;15.60;76.40;;;;;;4131343;28;20791;-85
2023/09/19 02:45:40;;;;;;;;;;;15.60;76.40;;;;;;4124155;28;19914;-85
2023/09/19 02:47:40;;;;;;;;;;;15.50;76.50;;;;;;4122332;28;19924;-86
2023/09/19 02:50:01;;;;;;;;;;;15.50;76.50;;;;;;4114696;28;20304;-85
2023/09/19 02:52:30;;;;;;;;;;;15.50;76.50;;;;;;4116261;28;20359;-86
2023/09/19 02:54:46;;;;;;;;;;;15.50;76.50;;;;;;4115431;28;20937;-87
2023/09/19 02:57:09;;;;;;;;;;;15.50;76.40;;;;;;4122160;28;20522;-89
2023/09/19 02:59:31;;;;;;;;;;;15.50;76.40;;;;;;4120767;28;20496;-88
2023/09/19 03:01:54;;;;;;;;;;;15.50;76.20;;;;;;4114953;28;21422;-87
2023/09/19 03:04:19;;;;;;;;;;;15.50;76.30;;;;;;4117402;28;21800;-89
2023/09/19 03:06:40;;;;;;;;;;;15.50;76.10;;;;;;4118388;28;20441;-89
2023/09/19 03:09:02;;;;;;;;;;;15.40;76.00;;;;;;4117064;28;20682;-89
2023/09/19 03:11:23;;;;;;;;;;;15.40;75.90;;;;;;4115143;28;20427;-88
2023/09/19 03:13:44;;;;;;;;;;;15.30;75.90;;;;;;4116122;28;19929;-89
2023/09/19 03:15:47;;;;;;;;;;;15.40;75.80;;;;;;4119515;28;19918;-88
2023/09/19 03:17:48;;;;;;;;;;;15.40;75.70;;;;;;4136023;28;19956;-88
2023/09/19 03:20:11;;;;;;;;;;;15.30;75.50;;;;;;4135823;28;19980;-89
2023/09/19 03:22:38;;;;;;;;;;;15.30;75.40;;;;;;4118183;28;20394;-86
2023/09/19 03:25:07;;;;;;;;;;;15.30;75.40;;;;;;4121347;28;19942;-88
2023/09/19 03:27:28;;;;;;;;;;;15.20;75.20;;;;;;4131585;28;20395;-88
2023/09/19 03:29:49;;;;;;;;;;;15.10;75.20;;;;;;4139539;28;20323;-89
2023/09/19 03:32:12;;;;;;;;;;;15.10;75.20;;;;;;4123683;28;19921;-90
2023/09/19 03:34:13;;;;;;;;;;;15.10;75.20;;;;;;4140680;28;19913;-88
2023/09/19 03:36:13;;;;;;;;;;;15.10;75.10;;;;;;4123227;28;19973;-87
2023/09/19 03:38:14;;;;;;;;;;;15.00;75.10;;;;;;4118338;28;19953;-85
2023/09/19 03:40:15;;;;;;;;;;;15.00;75.10;;;;;;4115972;28;19922;-86
2023/09/19 03:42:16;;;;;;;;;;;15.00;74.90;;;;;;4132030;28;19998;-87
2023/09/19 03:44:17;;;;;;;;;;;15.00;74.90;;;;;;4130723;28;19921;-88
2023/09/19 03:46:17;;;;;;;;;;;14.90;74.70;;;;;;4154918;28;19942;-88
2023/09/19 03:48:19;;;;;;;;;;;14.90;74.50;;;;;;4130527;28;20036;-89
2023/09/19 03:50:20;;;;;;;;;;;14.80;74.40;;;;;;4116765;28;19960;-88
2023/09/19 03:52:20;;;;;;;;;;;14.70;74.30;;;;;;4117859;28;19914;-88
2023/09/19 03:54:21;;;;;;;;;;;14.80;74.30;;;;;;4117972;28;19926;-89
2023/09/19 03:56:31;;;;;;;;;;;14.70;74.20;;;;;;4133093;28;19917;-88
2023/09/19 03:58:38;;;;;;;;;;;14.60;74.10;;;;;;4128615;28;19964;-88
2023/09/19 04:00:39;;;;;;;;;;;14.50;74.10;;;;;;4145594;28;19902;-88
2023/09/19 04:02:43;;;;;;;;;;;14.50;74.10;;;;;;4147391;28;19909;-85
2023/09/19 04:04:44;;;;;;;;;;;14.30;74.00;;;;;;4150795;28;19922;-86
2023/09/19 04:06:44;;;;;;;;;;;14.30;74.10;;;;;;4146572;28;19952;-88
2023/09/19 04:09:07;;;;;;;;;;;14.20;74.00;;;;;;4125223;28;20293;-89
2023/09/19 04:11:07;;;;;;;;;;;14.30;74.20;;;;;;4121333;28;20027;-88
2023/09/19 04:13:28;;;;;;;;;;;14.10;74.10;;;;;;4116771;28;20283;-87
2023/09/19 04:15:48;;;;;;;;;;;14.10;74.30;;;;;;4123180;28;20295;-87
2023/09/19 04:18:09;;;;;;;;;;;14.10;74.30;;;;;;4117630;28;20346;-89
2023/09/19 04:20:12;;;;;;;;;;;14.00;74.30;;;;;;4137382;28;19944;-88
2023/09/19 04:22:32;;;;;;;;;;;13.90;74.20;;;;;;4119006;28;19933;-87
2023/09/19 04:24:53;;;;;;;;;;;13.90;74.40;;;;;;4120575;28;20428;-89
2023/09/19 04:27:14;;;;;;;;;;;13.80;74.40;;;;;;4117505;28;21028;-88
2023/09/19 04:29:19;;;;;;;;;;;13.80;74.40;;;;;;4120718;28;19914;-85
2023/09/19 04:31:20;;;;;;;;;;;13.70;74.30;;;;;;4122158;28;20414;-88
2023/09/19 04:33:21;;;;;;;;;;;13.80;74.40;;;;;;4119287;28;22763;-87
2023/09/19 04:35:22;;;;;;;;;;;13.70;74.50;;;;;;4118846;28;20404;-87
2023/09/19 04:37:42;;;;;;;;;;;13.60;74.50;;;;;;4119613;28;19988;-88
2023/09/19 04:40:05;;;;;;;;;;;13.70;74.60;;;;;;4121470;28;19929;-88
2023/09/19 04:42:27;;;;;;;;;;;13.50;74.60;;;;;;4117184;28;19929;-88
2023/09/19 04:44:37;;;;;;;;;;;13.60;74.70;;;;;;4123098;28;19987;-88
2023/09/19 04:46:59;;;;;;;;;;;13.50;74.70;;;;;;4121087;28;20279;-87
2023/09/19 04:49:20;;;;;;;;;;;13.50;74.80;;;;;;4119088;28;20022;-87
2023/09/19 04:51:40;;;;;;;;;;;13.50;74.90;;;;;;4123408;28;19980;-86
2023/09/19 04:54:01;;;;;;;;;;;13.40;74.80;;;;;;4120494;28;20386;-88
2023/09/19 04:56:23;;;;;;;;;;;13.40;74.90;;;;;;4134240;28;20503;-88
2023/09/19 04:58:44;;;;;;;;;;;13.40;74.90;;;;;;4137824;28;20327;-88
2023/09/19 05:01:05;;;;;;;;;;;13.30;74.90;;;;;;4124132;28;19917;-87
2023/09/19 05:03:25;;;;;;;;;;;13.30;74.90;;;;;;4122458;28;20623;-87
2023/09/19 05:05:46;;;;;;;;;;;13.30;74.90;;;;;;4118014;28;20302;-88
2023/09/19 05:08:08;;;;;;;;;;;13.20;74.90;;;;;;4118100;28;19918;-88
2023/09/19 05:10:29;;;;;;;;;;;13.30;75.00;;;;;;4121914;28;19922;-87
2023/09/19 05:12:52;;;;;;;;;;;13.20;74.90;;;;;;4122680;28;19918;-87
2023/09/19 05:15:14;;;;;;;;;;;13.20;75.00;;;;;;4125045;28;20531;-86
2023/09/19 05:17:35;;;;;;;;;;;13.20;75.10;;;;;;4136615;23;20007;-85
2023/09/19 05:19:55;;;;;;;;;;;13.20;75.10;;;;;;4141008;28;20975;-85
2023/09/19 05:22:18;;;;;;;;;;;13.10;75.10;;;;;;4142491;28;20055;-85
2023/09/19 05:24:39;;;;;;;;;;;13.10;75.10;;;;;;4144239;28;20068;-87
2023/09/19 05:26:40;;;;;;;;;;;13.10;75.30;;;;;;4112076;28;19916;-87
2023/09/19 05:28:41;;;;;;;;;;;13.20;75.40;;;;;;4134545;28;19921;-87
2023/09/19 05:30:44;;;;;;;;;;;13.20;75.50;;;;;;4135046;28;19929;-86
2023/09/19 05:33:05;;;;;;;;;;;13.00;75.40;;;;;;4137840;28;19926;-87
2023/09/19 05:35:29;;;;;;;;;;;13.10;75.50;;;;;;4124945;28;20055;-86
2023/09/19 05:37:54;;;;;;;;;;;13.20;75.70;;;;;;4138311;28;19936;-86
2023/09/19 05:40:15;;;;;;;;;;;13.10;75.80;;;;;;4124556;28;20198;-85
2023/09/19 05:42:35;;;;;;;;;;;13.30;76.00;;;;;;4137382;28;20517;-87
2023/09/19 05:44:56;;;;;;;;;;;13.30;76.90;;;;;;4134419;28;20290;-86
2023/09/19 05:47:18;;;;;;;;;;;13.10;75.80;;;;;;4123160;28;19910;-86
2023/09/19 05:49:21;;;;;;;;;;;13.30;75.80;;;;;;4121678;28;20358;-85
2023/09/19 05:51:22;;;;;;;;;;;13.20;75.60;;;;;;4117620;28;20731;-87
2023/09/19 05:53:43;;;;;;;;;;;13.20;75.60;;;;;;4121227;28;20418;-86
2023/09/19 05:56:04;;;;;;;;;;;13.10;75.50;;;;;;4132892;28;19910;-86
2023/09/19 05:58:24;;;;;;;;;;;13.10;75.60;;;;;;4136633;28;19932;-87
2023/09/19 06:00:47;;;;;;;;;;;13.10;75.70;;;;;;4135819;28;19941;-87
2023/09/19 06:03:07;;;;;;;;;;;13.20;75.80;;;;;;4136213;28;19914;-87
2023/09/19 06:05:30;;;;;;;;;;;13.10;75.70;;;;;;4136614;28;19909;-85
2023/09/19 06:07:52;;;;;;;;;;;13.00;75.70;;;;;;4135979;28;19918;-86
2023/09/19 06:10:13;;;;;;;;;;;13.10;75.80;;;;;;4129841;28;19917;-86
2023/09/19 06:12:17;;;;;;;;;;;13.00;75.80;;;;;;4137667;28;19909;-86
2023/09/19 06:14:17;;;;;;;;;;;13.10;75.80;;;;;;4118792;28;19936;-84
2023/09/19 06:16:19;;;;;;;;;;;13.00;75.80;;;;;;4126133;28;19929;-85
2023/09/19 06:18:40;;;;;;;;;;;13.00;75.90;;;;;;4132008;28;19939;-86
2023/09/19 06:21:05;;;;;;;;;;;13.00;75.90;;;;;;4121484;28;19917;-86
2023/09/19 06:23:26;;;;;;;;;;;13.00;76.00;;;;;;4122924;28;19922;-85
2023/09/19 06:25:47;;;;;;;;;;;13.00;76.00;;;;;;4141937;28;19898;-86
2023/09/19 06:28:08;;;;;;;;;;;13.00;76.40;;;;;;4160061;28;19950;-86
2023/09/19 06:30:29;;;;;;;;;;;13.00;76.30;;;;;;4135602;28;19996;-87
2023/09/19 06:32:55;;;;;;;;;;;13.00;76.50;;;;;;4122103;28;19996;-87
2023/09/19 06:35:16;;;;;;;;;;;13.10;77.30;;;;;;4133768;28;19949;-87
2023/09/19 06:37:16;;;;;;;;;;;12.90;76.50;;;;;;4121851;28;20071;-85
2023/09/19 06:39:17;;;;;;;;;;;13.10;76.70;;;;;;4137436;28;19909;-86
2023/09/19 06:41:24;;;;;;;;;;;13.20;76.90;;;;;;4101178;28;19936;-86
2023/09/19 06:43:45;;;;;;;;;;;13.00;77.00;;;;;;4122510;28;19910;-86
2023/09/19 06:46:07;;;;;;;;;;;13.00;76.90;;;;;;4136914;28;19979;-86
2023/09/19 06:48:19;;;;;;;;;;;13.10;77.20;;;;;;4100885;28;19914;-87
2023/09/19 06:50:41;;;;;;;;;;;13.00;77.20;;;;;;4121437;28;20094;-86
2023/09/19 06:53:02;;;;;;;;;;;13.20;77.50;;;;;;4138673;28;19914;-86
2023/09/19 06:55:27;;;;;;;;;;;13.10;77.60;;;;;;4134330;28;19941;-86
2023/09/19 06:57:48;;;;;;;;;;;13.20;77.60;;;;;;4134921;28;20027;-87
2023/09/19 07:00:15;;;;;;;;;;;13.20;77.60;;;;;;4134378;28;20536;-87
2023/09/19 07:02:16;;;;;;;;;;;13.10;77.90;;;;;;4125239;28;20021;-86
2023/09/19 07:04:36;;;;;;;;;;;13.20;78.00;;;;;;4131382;28;19945;-87
2023/09/19 07:06:57;;;;;;;;;;;13.20;78.10;;;;;;4134254;28;19961;-87
2023/09/19 07:08:58;;;;;;;;;;;13.20;78.10;;;;;;4123474;28;20402;-84
2023/09/19 07:11:19;;;;;;;;;;;13.30;78.30;;;;;;4136694;28;19913;-85
2023/09/19 07:13:40;;;;;;;;;;;13.30;78.80;;;;;;4132992;28;20008;-85
2023/09/19 07:16:00;;;;;;;;;;;13.30;78.60;;;;;;4135125;28;19987;-84
2023/09/19 07:18:21;;;;;;;;;;;13.40;78.80;;;;;;4132183;28;19917;-85
2023/09/19 07:20:49;;;;;;;;;;;13.50;78.90;;;;;;4134375;28;19929;-85
2023/09/19 07:23:09;;;;;;;;;;;13.40;78.70;;;;;;4135849;28;20000;-85
2023/09/19 07:25:30;;;;;;;;;;;13.50;78.60;;;;;;4137097;28;19961;-85
2023/09/19 07:27:30;;;;;;;;;;;13.50;78.70;;;;;;4133851;28;20417;-85
2023/09/19 07:29:51;;;;;;;;;;;13.50;78.60;;;;;;4136920;28;19909;-84
2023/09/19 07:32:13;;;;;;;;;;;13.50;78.50;;;;;;4137760;28;19933;-85
2023/09/19 07:34:33;;;;;;;;;;;13.60;78.50;;;;;;4137653;28;19949;-85
2023/09/19 07:36:54;;;;;;;;;;;13.50;78.20;;;;;;4136489;28;19957;-85
2023/09/19 07:39:14;;;;;;;;;;;13.50;78.10;;;;;;4140143;28;19925;-85
2023/09/19 07:41:35;;;;;;;;;;;13.50;78.10;;;;;;4139903;28;19920;-86
2023/09/19 07:43:56;;;;;;;;;;;13.50;77.90;;;;;;4140175;28;19925;-85
2023/09/19 07:46:17;;;;;;;;;;;13.60;77.70;;;;;;4129844;28;19937;-85
2023/09/19 07:48:38;;;;;;;;;;;13.60;77.80;;;;;;4120964;28;19953;-86
2023/09/19 07:51:04;;;;;;;;;;;13.60;77.60;;;;;;4138958;28;20008;-87
2023/09/19 07:53:25;;;;;;;;;;;13.60;77.60;;;;;;4128139;28;19914;-86
2023/09/19 07:55:47;;;;;;;;;;;13.70;77.40;;;;;;4125643;28;19918;-86
2023/09/19 07:58:08;;;;;;;;;;;13.70;77.20;;;;;;4138981;28;20009;-84
2023/09/19 08:00:29;;;;;;;;;;;13.80;77.30;;;;;;4140923;28;19997;-86
2023/09/19 08:02:49;;;;;;;;;;;13.70;77.40;;;;;;4124821;28;19992;-87
2023/09/19 08:05:11;;;;;;;;;;;13.80;77.30;;;;;;4135851;28;19917;-89
2023/09/19 08:07:22;;;;;;;;;;;13.80;77.40;;;;;;4125425;28;20614;-90
2023/09/19 08:09:23;;;;;;;;;;;13.90;78.20;;;;;;4140100;28;20599;-89
2023/09/19 08:11:39;;;;;;;;;;;13.90;77.60;;;;;;4127288;28;20479;-87
2023/09/19 08:14:00;;;;;;;;;;;14.00;77.60;;;;;;4124887;28;20020;-87
2023/09/19 08:16:02;;;;;;;;;;;14.00;77.50;;;;;;4136483;28;19914;-87
2023/09/19 08:18:03;;;;;;;;;;;14.10;77.60;;;;;;4135464;28;19917;-88
2023/09/19 08:20:05;;;;;;;;;;;14.10;77.60;;;;;;4126413;28;20426;-87
2023/09/19 08:22:05;;;;;;;;;;;14.20;77.60;;;;;;4125700;28;19924;-88
2023/09/19 08:24:07;;;;;;;;;;;14.30;77.80;;;;;;4123628;28;19914;-87
2023/09/19 08:26:08;;;;;;;;;;;14.30;77.80;;;;;;4122714;28;20415;-87
2023/09/19 08:28:11;;;;;;;;;;;14.40;78.00;;;;;;4140912;28;19922;-85
2023/09/19 08:30:12;;;;;;;;;;;14.50;78.00;;;;;;4123888;28;19910;-87
2023/09/19 08:32:13;;;;;;;;;;;14.60;78.00;;;;;;4122389;28;20031;-86
2023/09/19 08:34:13;;;;;;;;;;;14.70;78.00;;;;;;4123567;28;20713;-86
2023/09/19 08:36:14;;;;;;;;;;;14.80;78.10;;;;;;4142675;28;19932;-87
2023/09/19 08:38:15;;;;;;;;;;;14.80;77.90;;;;;;4139250;28;19913;-90
2023/09/19 08:40:18;;;;;;;;;;;14.90;77.90;;;;;;4140035;28;19924;-90
2023/09/19 08:42:21;;;;;;;;;;;15.00;77.80;;;;;;4137038;28;19955;-89
2023/09/19 08:44:21;;;;;;;;;;;15.10;77.60;;;;;;4140127;28;19918;-89
2023/09/19 08:46:25;;;;;;;;;;;15.20;77.50;;;;;;4139944;28;20322;-88
2023/09/19 08:48:28;;;;;;;;;;;15.30;77.50;;;;;;4124857;28;20025;-89
2023/09/19 08:50:29;;;;;;;;;;;15.30;77.50;;;;;;4126650;28;19921;-89
2023/09/19 08:52:36;;;;;;;;;;;15.40;77.50;;;;;;4141110;28;19925;-89
2023/09/19 08:54:40;;;;;;;;;;;15.40;77.70;;;;;;4141018;28;19925;-89
2023/09/19 08:56:42;;;;;;;;;;;15.50;78.00;;;;;;4121745;28;20212;-88
2023/09/19 08:58:59;;;;;;;;;;;15.60;78.20;;;;;;4122209;28;19974;-89
2023/09/19 09:01:01;;;;;;;;;;;15.70;77.90;;;;;;4135284;28;19916;-90
2023/09/19 09:03:02;;;;;;;;;;;15.80;77.50;;;;;;4140746;28;20338;-89
2023/09/19 09:05:05;;;;;;;;;;;15.80;77.10;;;;;;4137606;28;19933;-89
2023/09/19 09:07:13;;;;;;;;;;;15.90;76.30;;;;;;4128310;28;19945;-89
2023/09/19 09:09:14;;;;;;;;;;;15.90;75.40;;;;;;4148238;28;19940;-89
2023/09/19 09:11:37;;;;;;;;;;;16.00;75.50;;;;;;4159608;28;19914;-88
2023/09/19 09:13:47;;;;;;;;;;;16.00;75.10;;;;;;4146465;28;19926;-86
2023/09/19 09:16:09;;;;;;;;;;;16.00;75.20;;;;;;4147163;28;19912;-87
2023/09/19 09:18:30;;;;;;;;;;;16.00;75.00;;;;;;4142518;28;19925;-88
2023/09/19 09:20:51;;;;;;;;;;;16.10;75.00;;;;;;4140025;28;19928;-86
2023/09/19 09:23:13;;;;;;;;;;;16.10;75.00;;;;;;4140236;28;19906;-87
2023/09/19 09:25:56;;;;;;;;;;;16.20;75.10;;;;;;4161866;28;19905;-86
2023/09/19 09:28:22;;;;;;;;;;;16.10;75.10;;;;;;4146930;28;19906;-85
2023/09/19 09:30:42;;;;;;;;;;;16.10;75.00;;;;;;4152615;28;19962;-87
2023/09/19 09:33:13;;;;;;;;;;;16.20;74.80;;;;;;4138181;28;20008;-88
2023/09/19 09:35:33;;;;;;;;;;;16.20;74.50;;;;;;4139446;28;19920;-87
2023/09/19 09:38:02;;;;;;;;;;;16.30;73.80;;;;;;4140420;28;19924;-87
2023/09/19 09:40:36;;;;;;;;;;;16.20;73.70;;;;;;4142473;28;20181;-86
2023/09/19 09:42:59;;;;;;;;;;;16.20;73.60;;;;;;4141028;28;19926;-85
2023/09/19 09:45:28;;;;;;;;;;;16.20;72.80;;;;;;4149639;28;19906;-84
2023/09/19 09:47:57;;;;;;;;;;;16.20;72.90;;;;;;4151088;28;19937;-86
2023/09/19 09:50:36;;;;;;;;;;;16.10;72.60;;;;;;4142701;28;19906;-86
2023/09/19 09:53:06;;;;;;;;;;;16.10;72.60;;;;;;4157960;28;19913;-85
2023/09/19 09:55:27;;;;;;;;;;;16.20;73.20;;;;;;4144454;28;19994;-85
2023/09/19 09:57:40;;;;;;;;;;;16.20;73.30;;;;;;4155683;28;19918;-86
2023/09/19 09:59:55;;;;;;;;;;;16.20;73.10;;;;;;4153058;28;19921;-87
2023/09/19 10:01:56;;;;;;;;;;;16.20;73.10;;;;;;4133666;28;19914;-86
2023/09/19 10:03:57;;;;;;;;;;;16.20;73.10;;;;;;4108580;28;19910;-84
2023/09/19 10:05:58;;;;;;;;;;;16.20;73.10;;;;;;4138864;28;19937;-85
2023/09/19 10:08:11;;;;;;;;;;;16.30;72.80;;;;;;4138907;28;20698;-85
2023/09/19 10:10:23;;;;;;;;;;;16.20;72.30;;;;;;4139667;28;19914;-84
2023/09/19 10:12:27;;;;;;;;;;;16.10;72.60;;;;;;4134285;28;19921;-84
2023/09/19 10:14:31;;;;;;;;;;;16.10;72.40;;;;;;4138552;28;19910;-86
2023/09/19 10:16:32;;;;;;;;;;;16.10;72.10;;;;;;4137528;28;20268;-87
2023/09/19 10:18:36;;;;;;;;;;;16.10;72.30;;;;;;4122568;28;19922;-86
2023/09/19 10:20:38;;;;;;;;;;;16.00;72.00;;;;;;4136577;28;19918;-84
2023/09/19 10:22:42;;;;;;;;;;;16.00;72.30;;;;;;4132389;28;19914;-85
2023/09/19 10:24:44;;;;;;;;;;;15.90;72.20;;;;;;4134707;28;19914;-85
2023/09/19 10:26:46;;;;;;;;;;;15.90;72.30;;;;;;4122794;28;19942;-85
2023/09/19 10:28:50;;;;;;;;;;;15.90;72.50;;;;;;4136844;28;19974;-84
2023/09/19 10:30:51;;;;;;;;;;;15.80;72.70;;;;;;4108693;28;20052;-85
2023/09/19 10:32:58;;;;;;;;;;;15.80;72.80;;;;;;4122106;28;19926;-84
2023/09/19 10:35:00;;;;;;;;;;;15.80;73.00;;;;;;4137040;28;19914;-86
2023/09/19 10:37:05;;;;;;;;;;;15.70;73.00;;;;;;4138648;28;19910;-86
2023/09/19 10:39:08;;;;;;;;;;;15.70;73.20;;;;;;4140379;28;19992;-85
2023/09/19 10:41:29;;;;;;;;;;;15.60;73.00;;;;;;4132659;28;19961;-86
2023/09/19 10:43:31;;;;;;;;;;;15.70;73.10;;;;;;4131077;28;19914;-87
2023/09/19 10:45:41;;;;;;;;;;;15.70;73.30;;;;;;4135185;28;20004;-85
2023/09/19 10:47:59;;;;;;;;;;;15.60;73.50;;;;;;4136567;28;19921;-87
2023/09/19 10:50:01;;;;;;;;;;;15.60;74.40;;;;;;4118888;28;19997;-84
2023/09/19 10:52:23;;;;;;;;;;;15.60;74.10;;;;;;4135675;28;20310;-84
2023/09/19 10:54:26;;;;;;;;;;;15.70;74.80;;;;;;4137054;28;19922;-87
2023/09/19 10:56:51;;;;;;;;;;;15.70;75.70;;;;;;4136405;28;19921;-86
2023/09/19 10:59:05;;;;;;;;;;;15.60;75.80;;;;;;4119677;28;20370;-85
2023/09/19 11:01:41;;;;;;;;;;;15.70;76.20;;;;;;4121198;28;19914;-87
2023/09/19 11:03:45;;;;;;;;;;;15.80;76.70;;;;;;4120258;28;19918;-86
2023/09/19 11:06:09;;;;;;;;;;;15.80;77.40;;;;;;4125898;28;19914;-86
2023/09/19 11:08:32;;;;;;;;;;;15.90;77.30;;;;;;4122895;28;19918;-87
2023/09/19 11:10:54;;;;;;;;;;;16.00;77.50;;;;;;4141625;28;19921;-87
2023/09/19 11:13:29;;;;;;;;;;;16.00;77.50;;;;;;4142809;28;19927;-88
2023/09/19 11:15:59;;;;;;;;;;;16.10;77.30;;;;;;4124438;28;19964;-86
2023/09/19 11:18:39;;;;;;;;;;;16.20;76.90;;;;;;4140077;28;20004;-86
2023/09/19 11:21:22;;;;;;;;;;;16.30;76.60;;;;;;4142260;28;19917;-88
2023/09/19 11:23:25;;;;;;;;;;;16.30;76.10;;;;;;4119448;28;19965;-87
2023/09/19 11:25:34;;;;;;;;;;;16.40;75.60;;;;;;4125771;28;19914;-86
2023/09/19 11:27:58;;;;;;;;;;;16.40;75.40;;;;;;4122025;28;20082;-87
2023/09/19 11:30:19;;;;;;;;;;;16.50;74.80;;;;;;4126821;28;19933;-86
2023/09/19 11:32:41;;;;;;;;;;;16.50;74.60;;;;;;4140188;28;19917;-87
2023/09/19 11:34:45;;;;;;;;;;;16.60;74.40;;;;;;4120548;28;19918;-88
2023/09/19 11:36:46;;;;;;;;;;;16.70;73.70;;;;;;4126332;28;19985;-86
2023/09/19 11:38:49;;;;;;;;;;;16.70;72.20;;;;;;4139296;28;20376;-87
2023/09/19 11:41:11;;;;;;;;;;;16.80;72.70;;;;;;4111053;28;20021;-86
2023/09/19 11:43:30;;;;;;;;;;;16.80;73.00;;;;;;4137807;28;19941;-86
2023/09/19 11:45:57;;;;;;;;;;;16.80;72.30;;;;;;4105855;28;19918;-87
2023/09/19 11:47:58;;;;;;;;;;;16.90;72.50;;;;;;4137186;28;19967;-86
2023/09/19 11:50:21;;;;;;;;;;;16.90;70.50;;;;;;4138679;28;19972;-85
2023/09/19 11:52:43;;;;;;;;;;;17.00;70.90;;;;;;4141981;28;19928;-84
2023/09/19 11:55:04;;;;;;;;;;;16.90;70.30;;;;;;4140055;28;19913;-86
2023/09/19 11:57:25;;;;;;;;;;;16.90;69.70;;;;;;4125679;28;19960;-84
2023/09/19 11:59:47;;;;;;;;;;;16.90;69.60;;;;;;4140194;28;19913;-88
2023/09/19 12:01:57;;;;;;;;;;;16.90;69.10;;;;;;4124134;28;20010;-87
2023/09/19 12:04:03;;;;;;;;;;;16.80;70.00;;;;;;4121063;28;19910;-86
2023/09/19 12:06:14;;;;;;;;;;;16.80;69.70;;;;;;4159815;28;19906;-84
2023/09/19 12:08:16;;;;;;;;;;;16.70;70.10;;;;;;4134338;28;20375;-87
2023/09/19 12:10:17;;;;;;;;;;;16.80;70.70;;;;;;4128174;28;19914;-87
2023/09/19 12:12:28;;;;;;;;;;;16.70;70.80;;;;;;4143487;28;20393;-88
2023/09/19 12:14:28;;;;;;;;;;;16.70;70.90;;;;;;4142910;28;19917;-87
2023/09/19 12:16:33;;;;;;;;;;;16.70;71.10;;;;;;4118002;28;20009;-86
2023/09/19 12:18:36;;;;;;;;;;;16.80;71.40;;;;;;4144162;28;19921;-87
2023/09/19 12:20:50;;;;;;;;;;;16.70;71.40;;;;;;4109123;28;20423;-85
2023/09/19 12:22:51;;;;;;;;;;;16.60;71.60;;;;;;4128925;28;19916;-87
2023/09/19 12:24:54;;;;;;;;;;;16.70;72.00;;;;;;4115061;28;19969;-87
2023/09/19 12:27:01;;;;;;;;;;;16.70;71.90;;;;;;4142556;28;19917;-87
2023/09/19 12:29:04;;;;;;;;;;;16.70;71.70;;;;;;4119920;28;19914;-86
2023/09/19 12:31:08;;;;;;;;;;;16.70;71.60;;;;;;4143133;28;20024;-86
2023/09/19 12:33:19;;;;;;;;;;;16.70;71.70;;;;;;4141285;28;19917;-87
2023/09/19 12:35:30;;;;;;;;;;;16.70;71.30;;;;;;4122187;28;20004;-86
2023/09/19 12:37:31;;;;;;;;;;;16.70;71.00;;;;;;4128387;28;19914;-87
2023/09/19 12:39:31;;;;;;;;;;;16.70;70.80;;;;;;4138094;28;20566;-87
2023/09/19 12:41:32;;;;;;;;;;;16.70;70.10;;;;;;4139290;28;19921;-87
2023/09/19 12:43:34;;;;;;;;;;;16.70;70.70;;;;;;4123546;28;19966;-86
2023/09/19 12:45:44;;;;;;;;;;;16.70;70.20;;;;;;4123933;28;19918;-85
2023/09/19 12:48:03;;;;;;;;;;;16.70;70.00;;;;;;4120281;28;20000;-86
2023/09/19 12:50:12;;;;;;;;;;;16.80;69.70;;;;;;4123220;28;19915;-86
2023/09/19 12:52:13;;;;;;;;;;;16.80;69.50;;;;;;4123126;28;19918;-86
2023/09/19 12:54:17;;;;;;;;;;;16.80;69.90;;;;;;4139966;28;19925;-87
2023/09/19 12:56:18;;;;;;;;;;;16.90;69.50;;;;;;4124602;28;19953;-86
2023/09/19 12:58:19;;;;;;;;;;;16.90;68.80;;;;;;4110826;28;19914;-88
2023/09/19 13:00:24;;;;;;;;;;;16.90;68.80;;;;;;4122062;28;19921;-87
2023/09/19 13:02:25;;;;;;;;;;;16.90;69.10;;;;;;4136499;28;19921;-86
2023/09/19 13:04:27;;;;;;;;;;;16.90;67.90;;;;;;4138580;28;20425;-86
2023/09/19 13:06:38;;;;;;;;;;;17.00;67.90;;;;;;4123639;28;20395;-85
2023/09/19 13:09:11;;;;;;;;;;;16.90;67.60;;;;;;4137260;28;19921;-85
2023/09/19 13:11:38;;;;;;;;;;;17.00;68.40;;;;;;4121366;28;19918;-85
2023/09/19 13:13:39;;;;;;;;;;;17.00;68.50;;;;;;4139212;28;20351;-86
2023/09/19 13:16:01;;;;;;;;;;;17.00;68.40;;;;;;4139669;28;19920;-86
2023/09/19 13:18:23;;;;;;;;;;;17.00;68.30;;;;;;4123460;28;19922;-86